sensor_id;sensor_type;location;lat;lon;timestamp;temperature;humidity
41324;DHT22;27073;51.128;4.220;2023-02-14T00:01:50;7.90;74.70
41324;DHT22;27073;51.128;4.220;2023-02-14T00:04:17;7.90;75.30
41324;DHT22;27073;51.128;4.220;2023-02-14T00:06:44;7.90;77.10
41324;DHT22;27073;51.128;4.220;2023-02-14T00:09:12;8.00;77.90
41324;DHT22;27073;51.128;4.220;2023-02-14T00:11:38;7.90;78.50
41324;DHT22;27073;51.128;4.220;2023-02-14T00:14:04;8.00;77.30
41324;DHT22;27073;51.128;4.220;2023-02-14T00:16:49;8.10;75.20
41324;DHT22;27073;51.128;4.220;2023-02-14T00:19:16;8.00;73.40
41324;DHT22;27073;51.128;4.220;2023-02-14T00:21:42;7.90;74.70
41324;DHT22;27073;51.128;4.220;2023-02-14T00:24:11;8.00;75.00
41324;DHT22;27073;51.128;4.220;2023-02-14T00:26:39;8.00;74.10
41324;DHT22;27073;51.128;4.220;2023-02-14T00:29:13;7.90;75.00
41324;DHT22;27073;51.128;4.220;2023-02-14T00:31:40;7.80;75.90
41324;DHT22;27073;51.128;4.220;2023-02-14T00:34:06;7.80;76.00
41324;DHT22;27073;51.128;4.220;2023-02-14T00:36:33;7.70;77.10
41324;DHT22;27073;51.128;4.220;2023-02-14T00:39:02;7.70;78.10
41324;DHT22;27073;51.128;4.220;2023-02-14T00:41:29;7.50;80.10
41324;DHT22;27073;51.128;4.220;2023-02-14T00:43:54;7.60;81.60
41324;DHT22;27073;51.128;4.220;2023-02-14T00:46:21;7.60;80.40
41324;DHT22;27073;51.128;4.220;2023-02-14T00:48:47;7.70;80.00
41324;DHT22;27073;51.128;4.220;2023-02-14T00:51:13;7.60;79.20
41324;DHT22;27073;51.128;4.220;2023-02-14T00:53:40;7.70;77.40
41324;DHT22;27073;51.128;4.220;2023-02-14T00:56:06;7.60;78.30
41324;DHT22;27073;51.128;4.220;2023-02-14T00:58:32;7.50;76.30
41324;DHT22;27073;51.128;4.220;2023-02-14T01:00:58;7.50;78.20
41324;DHT22;27073;51.128;4.220;2023-02-14T01:03:24;7.60;79.20
41324;DHT22;27073;51.128;4.220;2023-02-14T01:05:51;7.60;78.70
41324;DHT22;27073;51.128;4.220;2023-02-14T01:08:17;7.50;78.40
41324;DHT22;27073;51.128;4.220;2023-02-14T01:10:43;7.40;78.00
41324;DHT22;27073;51.128;4.220;2023-02-14T01:13:10;7.50;78.40
41324;DHT22;27073;51.128;4.220;2023-02-14T01:15:41;7.50;79.60
41324;DHT22;27073;51.128;4.220;2023-02-14T01:18:08;7.40;79.00
41324;DHT22;27073;51.128;4.220;2023-02-14T01:20:34;7.40;77.90
41324;DHT22;27073;51.128;4.220;2023-02-14T01:23:01;7.50;77.60
41324;DHT22;27073;51.128;4.220;2023-02-14T01:25:27;7.30;78.80
41324;DHT22;27073;51.128;4.220;2023-02-14T01:27:53;7.40;79.90
41324;DHT22;27073;51.128;4.220;2023-02-14T01:30:19;7.30;79.70
41324;DHT22;27073;51.128;4.220;2023-02-14T01:32:46;7.30;82.20
41324;DHT22;27073;51.128;4.220;2023-02-14T01:35:12;7.40;82.10
41324;DHT22;27073;51.128;4.220;2023-02-14T01:37:37;7.30;81.90
41324;DHT22;27073;51.128;4.220;2023-02-14T01:40:05;7.20;83.30
41324;DHT22;27073;51.128;4.220;2023-02-14T01:42:34;7.30;83.90
41324;DHT22;27073;51.128;4.220;2023-02-14T01:45:04;7.40;81.60
41324;DHT22;27073;51.128;4.220;2023-02-14T01:47:34;7.50;78.50
41324;DHT22;27073;51.128;4.220;2023-02-14T01:50:11;7.40;76.50
41324;DHT22;27073;51.128;4.220;2023-02-14T01:52:46;7.30;78.10
41324;DHT22;27073;51.128;4.220;2023-02-14T01:55:21;7.20;78.40
41324;DHT22;27073;51.128;4.220;2023-02-14T01:58:04;7.20;79.90
41324;DHT22;27073;51.128;4.220;2023-02-14T02:00:32;7.10;79.80
41324;DHT22;27073;51.128;4.220;2023-02-14T02:03:18;7.00;79.40
41324;DHT22;27073;51.128;4.220;2023-02-14T02:05:48;7.00;80.10
41324;DHT22;27073;51.128;4.220;2023-02-14T02:08:15;7.00;78.70
41324;DHT22;27073;51.128;4.220;2023-02-14T02:10:43;7.00;77.60
41324;DHT22;27073;51.128;4.220;2023-02-14T02:13:20;7.00;79.10
41324;DHT22;27073;51.128;4.220;2023-02-14T02:16:16;6.90;79.10
41324;DHT22;27073;51.128;4.220;2023-02-14T02:22:18;6.90;78.90
41324;DHT22;27073;51.128;4.220;2023-02-14T02:25:08;6.80;77.80
41324;DHT22;27073;51.128;4.220;2023-02-14T02:32:51;6.80;79.40
41324;DHT22;27073;51.128;4.220;2023-02-14T02:35:51;6.80;79.50
41324;DHT22;27073;51.128;4.220;2023-02-14T02:41:22;6.70;80.00
41324;DHT22;27073;51.128;4.220;2023-02-14T02:44:17;6.80;79.00
41324;DHT22;27073;51.128;4.220;2023-02-14T02:49:44;6.60;78.60
41324;DHT22;27073;51.128;4.220;2023-02-14T02:58:40;6.70;76.00
41324;DHT22;27073;51.128;4.220;2023-02-14T03:01:14;6.50;77.60
41324;DHT22;27073;51.128;4.220;2023-02-14T03:03:45;6.50;78.10
41324;DHT22;27073;51.128;4.220;2023-02-14T03:06:32;6.50;79.10
41324;DHT22;27073;51.128;4.220;2023-02-14T03:09:48;6.50;78.40
41324;DHT22;27073;51.128;4.220;2023-02-14T03:12:16;6.40;80.90
41324;DHT22;27073;51.128;4.220;2023-02-14T03:14:55;6.40;82.60
41324;DHT22;27073;51.128;4.220;2023-02-14T03:23:27;6.30;79.90
41324;DHT22;27073;51.128;4.220;2023-02-14T03:26:09;6.30;79.20
41324;DHT22;27073;51.128;4.220;2023-02-14T03:28:46;6.30;80.60
41324;DHT22;27073;51.128;4.220;2023-02-14T03:31:25;6.30;79.90
41324;DHT22;27073;51.128;4.220;2023-02-14T03:33:59;6.40;80.10
41324;DHT22;27073;51.128;4.220;2023-02-14T03:36:33;6.30;78.70
41324;DHT22;27073;51.128;4.220;2023-02-14T03:39:16;6.30;79.40
41324;DHT22;27073;51.128;4.220;2023-02-14T03:42:00;6.40;79.70
41324;DHT22;27073;51.128;4.220;2023-02-14T03:44:31;6.40;78.30
41324;DHT22;27073;51.128;4.220;2023-02-14T03:47:02;6.40;78.80
41324;DHT22;27073;51.128;4.220;2023-02-14T03:49:32;6.30;78.40
41324;DHT22;27073;51.128;4.220;2023-02-14T03:52:02;6.40;77.50
41324;DHT22;27073;51.128;4.220;2023-02-14T03:54:52;6.20;78.20
41324;DHT22;27073;51.128;4.220;2023-02-14T03:57:25;6.20;80.40
41324;DHT22;27073;51.128;4.220;2023-02-14T03:59:53;6.10;82.00
41324;DHT22;27073;51.128;4.220;2023-02-14T04:03:05;6.10;82.50
41324;DHT22;27073;51.128;4.220;2023-02-14T04:05:16;6.10;82.20
41324;DHT22;27073;51.128;4.220;2023-02-14T04:07:49;6.10;81.20
41324;DHT22;27073;51.128;4.220;2023-02-14T04:10:16;6.10;84.20
41324;DHT22;27073;51.128;4.220;2023-02-14T04:12:43;6.10;85.80
41324;DHT22;27073;51.128;4.220;2023-02-14T04:15:10;6.10;86.30
41324;DHT22;27073;51.128;4.220;2023-02-14T04:17:36;6.20;88.00
41324;DHT22;27073;51.128;4.220;2023-02-14T04:20:22;6.20;89.10
41324;DHT22;27073;51.128;4.220;2023-02-14T04:22:49;6.30;88.20
41324;DHT22;27073;51.128;4.220;2023-02-14T04:25:17;6.30;86.30
41324;DHT22;27073;51.128;4.220;2023-02-14T04:27:43;6.30;86.00
41324;DHT22;27073;51.128;4.220;2023-02-14T04:30:09;6.30;86.30
41324;DHT22;27073;51.128;4.220;2023-02-14T04:32:37;6.20;87.10
41324;DHT22;27073;51.128;4.220;2023-02-14T04:35:03;6.20;88.30
41324;DHT22;27073;51.128;4.220;2023-02-14T04:37:29;6.30;88.20
41324;DHT22;27073;51.128;4.220;2023-02-14T04:39:54;6.30;87.80
41324;DHT22;27073;51.128;4.220;2023-02-14T04:42:20;6.40;87.10
41324;DHT22;27073;51.128;4.220;2023-02-14T04:44:46;6.40;87.70
41324;DHT22;27073;51.128;4.220;2023-02-14T04:47:11;6.40;87.90
41324;DHT22;27073;51.128;4.220;2023-02-14T04:49:37;6.40;87.60
41324;DHT22;27073;51.128;4.220;2023-02-14T04:52:04;6.40;88.70
41324;DHT22;27073;51.128;4.220;2023-02-14T04:54:30;6.30;89.00
41324;DHT22;27073;51.128;4.220;2023-02-14T04:56:56;6.30;87.20
41324;DHT22;27073;51.128;4.220;2023-02-14T04:59:21;6.20;88.00
41324;DHT22;27073;51.128;4.220;2023-02-14T05:01:47;6.20;88.20
41324;DHT22;27073;51.128;4.220;2023-02-14T05:04:13;6.10;88.80
41324;DHT22;27073;51.128;4.220;2023-02-14T05:06:39;6.10;90.00
41324;DHT22;27073;51.128;4.220;2023-02-14T05:09:05;6.10;90.40
41324;DHT22;27073;51.128;4.220;2023-02-14T05:11:31;6.10;90.80
41324;DHT22;27073;51.128;4.220;2023-02-14T05:13:57;6.10;90.60
41324;DHT22;27073;51.128;4.220;2023-02-14T05:16:23;6.20;90.90
41324;DHT22;27073;51.128;4.220;2023-02-14T05:18:49;6.20;90.80
41324;DHT22;27073;51.128;4.220;2023-02-14T05:21:14;6.20;91.00
41324;DHT22;27073;51.128;4.220;2023-02-14T05:23:40;6.20;91.30
41324;DHT22;27073;51.128;4.220;2023-02-14T05:26:06;6.20;91.60
41324;DHT22;27073;51.128;4.220;2023-02-14T05:28:32;6.30;92.20
41324;DHT22;27073;51.128;4.220;2023-02-14T05:30:58;6.20;92.20
41324;DHT22;27073;51.128;4.220;2023-02-14T05:33:25;6.30;92.10
41324;DHT22;27073;51.128;4.220;2023-02-14T05:35:51;6.20;92.30
41324;DHT22;27073;51.128;4.220;2023-02-14T05:38:17;6.20;92.10
41324;DHT22;27073;51.128;4.220;2023-02-14T05:40:43;6.20;92.50
41324;DHT22;27073;51.128;4.220;2023-02-14T05:43:09;6.30;92.90
41324;DHT22;27073;51.128;4.220;2023-02-14T05:45:35;6.20;92.80
41324;DHT22;27073;51.128;4.220;2023-02-14T05:48:01;6.30;93.00
41324;DHT22;27073;51.128;4.220;2023-02-14T05:50:28;6.30;93.20
41324;DHT22;27073;51.128;4.220;2023-02-14T05:52:54;6.10;94.20
41324;DHT22;27073;51.128;4.220;2023-02-14T05:55:20;6.10;95.10
41324;DHT22;27073;51.128;4.220;2023-02-14T05:57:46;6.10;95.50
41324;DHT22;27073;51.128;4.220;2023-02-14T06:00:13;6.10;95.20
41324;DHT22;27073;51.128;4.220;2023-02-14T06:02:39;6.00;94.50
41324;DHT22;27073;51.128;4.220;2023-02-14T06:05:06;6.10;94.50
41324;DHT22;27073;51.128;4.220;2023-02-14T06:07:31;6.10;94.50
41324;DHT22;27073;51.128;4.220;2023-02-14T06:09:57;6.20;94.90
41324;DHT22;27073;51.128;4.220;2023-02-14T06:12:23;6.20;95.20
41324;DHT22;27073;51.128;4.220;2023-02-14T06:14:49;6.20;95.00
41324;DHT22;27073;51.128;4.220;2023-02-14T06:17:15;6.30;94.70
41324;DHT22;27073;51.128;4.220;2023-02-14T06:19:40;6.20;94.10
41324;DHT22;27073;51.128;4.220;2023-02-14T06:22:08;6.20;94.10
41324;DHT22;27073;51.128;4.220;2023-02-14T06:24:34;6.20;94.00
41324;DHT22;27073;51.128;4.220;2023-02-14T06:27:00;6.40;94.00
41324;DHT22;27073;51.128;4.220;2023-02-14T06:29:26;6.30;93.60
41324;DHT22;27073;51.128;4.220;2023-02-14T06:31:52;6.30;93.20
41324;DHT22;27073;51.128;4.220;2023-02-14T06:34:17;6.30;93.70
41324;DHT22;27073;51.128;4.220;2023-02-14T06:36:43;6.20;94.20
41324;DHT22;27073;51.128;4.220;2023-02-14T06:39:09;6.20;94.60
41324;DHT22;27073;51.128;4.220;2023-02-14T06:41:35;6.10;94.90
41324;DHT22;27073;51.128;4.220;2023-02-14T06:44:01;6.10;94.50
41324;DHT22;27073;51.128;4.220;2023-02-14T06:46:26;6.20;94.50
41324;DHT22;27073;51.128;4.220;2023-02-14T06:48:52;6.10;94.20
41324;DHT22;27073;51.128;4.220;2023-02-14T06:51:18;6.20;94.80
41324;DHT22;27073;51.128;4.220;2023-02-14T06:53:44;6.20;94.60
41324;DHT22;27073;51.128;4.220;2023-02-14T06:56:10;6.20;95.10
41324;DHT22;27073;51.128;4.220;2023-02-14T06:58:35;6.20;95.00
41324;DHT22;27073;51.128;4.220;2023-02-14T07:01:01;6.20;94.60
41324;DHT22;27073;51.128;4.220;2023-02-14T07:03:27;6.20;94.90
41324;DHT22;27073;51.128;4.220;2023-02-14T07:05:53;6.20;95.50
41324;DHT22;27073;51.128;4.220;2023-02-14T07:08:19;6.20;95.60
41324;DHT22;27073;51.128;4.220;2023-02-14T07:10:45;6.20;95.20
41324;DHT22;27073;51.128;4.220;2023-02-14T07:13:12;6.20;95.10
41324;DHT22;27073;51.128;4.220;2023-02-14T07:15:38;6.20;94.80
41324;DHT22;27073;51.128;4.220;2023-02-14T07:18:04;6.30;94.30
41324;DHT22;27073;51.128;4.220;2023-02-14T07:20:29;6.30;94.00
41324;DHT22;27073;51.128;4.220;2023-02-14T07:22:55;6.30;94.10
41324;DHT22;27073;51.128;4.220;2023-02-14T07:25:21;6.40;93.70
41324;DHT22;27073;51.128;4.220;2023-02-14T07:27:47;6.40;93.20
41324;DHT22;27073;51.128;4.220;2023-02-14T07:30:13;6.40;93.30
41324;DHT22;27073;51.128;4.220;2023-02-14T07:32:39;6.40;93.30
41324;DHT22;27073;51.128;4.220;2023-02-14T07:35:06;6.40;93.50
41324;DHT22;27073;51.128;4.220;2023-02-14T07:37:33;6.30;94.10
41324;DHT22;27073;51.128;4.220;2023-02-14T07:39:59;6.30;93.70
41324;DHT22;27073;51.128;4.220;2023-02-14T07:42:25;6.40;93.90
41324;DHT22;27073;51.128;4.220;2023-02-14T07:44:50;6.40;94.00
41324;DHT22;27073;51.128;4.220;2023-02-14T07:47:16;6.40;93.70
41324;DHT22;27073;51.128;4.220;2023-02-14T07:49:42;6.40;94.10
41324;DHT22;27073;51.128;4.220;2023-02-14T07:52:08;6.40;94.40
41324;DHT22;27073;51.128;4.220;2023-02-14T07:54:34;6.40;94.90
41324;DHT22;27073;51.128;4.220;2023-02-14T07:57:00;6.40;95.50
41324;DHT22;27073;51.128;4.220;2023-02-14T07:59:26;6.40;95.30
41324;DHT22;27073;51.128;4.220;2023-02-14T08:01:53;6.50;95.50
41324;DHT22;27073;51.128;4.220;2023-02-14T08:04:18;6.50;95.40
41324;DHT22;27073;51.128;4.220;2023-02-14T08:06:44;6.50;95.40
41324;DHT22;27073;51.128;4.220;2023-02-14T08:09:10;6.50;96.00
41324;DHT22;27073;51.128;4.220;2023-02-14T08:11:36;6.40;96.80
41324;DHT22;27073;51.128;4.220;2023-02-14T08:14:22;6.40;97.50
41324;DHT22;27073;51.128;4.220;2023-02-14T08:16:47;6.50;97.70
41324;DHT22;27073;51.128;4.220;2023-02-14T08:19:14;6.60;97.90
41324;DHT22;27073;51.128;4.220;2023-02-14T08:21:40;6.50;97.70
41324;DHT22;27073;51.128;4.220;2023-02-14T08:24:06;6.50;97.90
41324;DHT22;27073;51.128;4.220;2023-02-14T08:26:32;6.60;97.80
41324;DHT22;27073;51.128;4.220;2023-02-14T08:29:00;6.70;97.60
41324;DHT22;27073;51.128;4.220;2023-02-14T08:31:30;6.70;97.90
41324;DHT22;27073;51.128;4.220;2023-02-14T08:33:56;6.70;98.40
41324;DHT22;27073;51.128;4.220;2023-02-14T08:36:23;6.70;98.40
41324;DHT22;27073;51.128;4.220;2023-02-14T08:38:51;6.70;98.40
41324;DHT22;27073;51.128;4.220;2023-02-14T08:41:17;6.80;98.30
41324;DHT22;27073;51.128;4.220;2023-02-14T08:43:43;6.80;98.60
41324;DHT22;27073;51.128;4.220;2023-02-14T08:46:10;6.90;98.50
41324;DHT22;27073;51.128;4.220;2023-02-14T08:48:39;7.00;98.10
41324;DHT22;27073;51.128;4.220;2023-02-14T08:51:11;7.10;97.80
41324;DHT22;27073;51.128;4.220;2023-02-14T08:53:38;7.10;97.20
41324;DHT22;27073;51.128;4.220;2023-02-14T08:56:05;7.20;97.20
41324;DHT22;27073;51.128;4.220;2023-02-14T08:58:32;6.90;98.60
41324;DHT22;27073;51.128;4.220;2023-02-14T09:01:00;6.90;98.60
41324;DHT22;27073;51.128;4.220;2023-02-14T09:03:26;7.10;98.50
41324;DHT22;27073;51.128;4.220;2023-02-14T09:05:52;6.90;98.70
41324;DHT22;27073;51.128;4.220;2023-02-14T09:08:18;6.80;98.80
41324;DHT22;27073;51.128;4.220;2023-02-14T09:10:44;6.90;99.80
41324;DHT22;27073;51.128;4.220;2023-02-14T09:13:09;7.10;99.60
41324;DHT22;27073;51.128;4.220;2023-02-14T09:15:35;7.20;99.20
41324;DHT22;27073;51.128;4.220;2023-02-14T09:18:01;7.20;98.00
41324;DHT22;27073;51.128;4.220;2023-02-14T09:20:28;7.10;98.80
41324;DHT22;27073;51.128;4.220;2023-02-14T09:22:55;7.20;98.90
41324;DHT22;27073;51.128;4.220;2023-02-14T09:25:21;7.10;99.40
41324;DHT22;27073;51.128;4.220;2023-02-14T09:27:47;7.20;99.60
41324;DHT22;27073;51.128;4.220;2023-02-14T09:30:13;7.30;99.60
41324;DHT22;27073;51.128;4.220;2023-02-14T09:32:39;7.30;99.00
41324;DHT22;27073;51.128;4.220;2023-02-14T09:35:05;7.30;98.90
41324;DHT22;27073;51.128;4.220;2023-02-14T09:37:49;7.20;99.80
41324;DHT22;27073;51.128;4.220;2023-02-14T09:40:34;7.00;99.90
41324;DHT22;27073;51.128;4.220;2023-02-14T09:45:55;7.00;99.90
41324;DHT22;27073;51.128;4.220;2023-02-14T09:48:36;7.20;99.90
41324;DHT22;27073;51.128;4.220;2023-02-14T09:51:12;7.20;99.90
41324;DHT22;27073;51.128;4.220;2023-02-14T09:53:51;7.10;99.90
41324;DHT22;27073;51.128;4.220;2023-02-14T09:59:42;7.10;99.90
41324;DHT22;27073;51.128;4.220;2023-02-14T10:04:50;7.00;99.90
41324;DHT22;27073;51.128;4.220;2023-02-14T10:09:51;7.20;99.90
41324;DHT22;27073;51.128;4.220;2023-02-14T10:12:31;7.40;99.90
41324;DHT22;27073;51.128;4.220;2023-02-14T10:15:00;7.50;99.90
41324;DHT22;27073;51.128;4.220;2023-02-14T10:17:39;7.60;99.90
41324;DHT22;27073;51.128;4.220;2023-02-14T10:23:04;7.80;99.90
41324;DHT22;27073;51.128;4.220;2023-02-14T10:28:10;7.80;98.90
41324;DHT22;27073;51.128;4.220;2023-02-14T10:30:38;7.80;99.30
41324;DHT22;27073;51.128;4.220;2023-02-14T10:33:16;7.90;99.80
41324;DHT22;27073;51.128;4.220;2023-02-14T10:35:50;8.00;98.90
41324;DHT22;27073;51.128;4.220;2023-02-14T10:41:42;8.40;97.80
41324;DHT22;27073;51.128;4.220;2023-02-14T10:44:25;8.50;96.80
41324;DHT22;27073;51.128;4.220;2023-02-14T10:52:21;8.70;95.50
41324;DHT22;27073;51.128;4.220;2023-02-14T10:54:57;8.70;95.10
41324;DHT22;27073;51.128;4.220;2023-02-14T10:59:53;8.80;95.70
41324;DHT22;27073;51.128;4.220;2023-02-14T11:02:29;8.90;94.50
41324;DHT22;27073;51.128;4.220;2023-02-14T11:04:56;9.00;93.70
41324;DHT22;27073;51.128;4.220;2023-02-14T11:07:23;9.10;93.80
41324;DHT22;27073;51.128;4.220;2023-02-14T11:09:48;9.20;93.20
41324;DHT22;27073;51.128;4.220;2023-02-14T11:12:32;9.30;92.00
41324;DHT22;27073;51.128;4.220;2023-02-14T11:17:38;9.50;91.20
41324;DHT22;27073;51.128;4.220;2023-02-14T11:20:24;9.60;90.80
41324;DHT22;27073;51.128;4.220;2023-02-14T11:22:52;9.80;89.60
41324;DHT22;27073;51.128;4.220;2023-02-14T11:27:45;9.90;87.50
41324;DHT22;27073;51.128;4.220;2023-02-14T11:30:27;9.90;83.50
41324;DHT22;27073;51.128;4.220;2023-02-14T11:32:54;9.80;84.50
41324;DHT22;27073;51.128;4.220;2023-02-14T11:35:23;9.90;84.30
41324;DHT22;27073;51.128;4.220;2023-02-14T11:37:53;10.00;83.20
41324;DHT22;27073;51.128;4.220;2023-02-14T11:40:38;10.10;81.20
41324;DHT22;27073;51.128;4.220;2023-02-14T11:45:39;10.20;79.60
41324;DHT22;27073;51.128;4.220;2023-02-14T11:48:22;10.50;78.70
41324;DHT22;27073;51.128;4.220;2023-02-14T11:56:08;10.60;70.40
41324;DHT22;27073;51.128;4.220;2023-02-14T12:01:11;10.90;70.20
41324;DHT22;27073;51.128;4.220;2023-02-14T12:03:48;11.10;67.20
41324;DHT22;27073;51.128;4.220;2023-02-14T12:06:25;11.20;58.70
41324;DHT22;27073;51.128;4.220;2023-02-14T12:12:00;11.40;54.40
41324;DHT22;27073;51.128;4.220;2023-02-14T12:14:34;11.60;57.20
41324;DHT22;27073;51.128;4.220;2023-02-14T12:19:48;12.10;47.90
41324;DHT22;27073;51.128;4.220;2023-02-14T12:22:18;12.20;34.00
41324;DHT22;27073;51.128;4.220;2023-02-14T12:27:30;12.20;29.70
41324;DHT22;27073;51.128;4.220;2023-02-14T12:30:10;12.20;34.60
41324;DHT22;27073;51.128;4.220;2023-02-14T12:32:50;12.30;25.50
41324;DHT22;27073;51.128;4.220;2023-02-14T12:35:28;12.40;22.70
41324;DHT22;27073;51.128;4.220;2023-02-14T12:52:28;12.90;16.90
41324;DHT22;27073;51.128;4.220;2023-02-14T12:55:13;12.90;5.70
41324;DHT22;27073;51.128;4.220;2023-02-14T13:05:44;13.30;8.80
41324;DHT22;27073;51.128;4.220;2023-02-14T13:09:00;13.50;1.00
41324;DHT22;27073;51.128;4.220;2023-02-14T13:16:50;14.00;1.00
41324;DHT22;27073;51.128;4.220;2023-02-14T13:19:36;14.10;1.00
41324;DHT22;27073;51.128;4.220;2023-02-14T13:22:10;14.10;1.00
41324;DHT22;27073;51.128;4.220;2023-02-14T13:24:46;14.20;1.00
41324;DHT22;27073;51.128;4.220;2023-02-14T13:27:17;14.40;1.00
41324;DHT22;27073;51.128;4.220;2023-02-14T13:29:57;14.60;1.00
41324;DHT22;27073;51.128;4.220;2023-02-14T13:32:27;14.60;1.00
41324;DHT22;27073;51.128;4.220;2023-02-14T13:34:55;14.60;1.00
41324;DHT22;27073;51.128;4.220;2023-02-14T13:37:23;14.80;99.90
41324;DHT22;27073;51.128;4.220;2023-02-14T13:39:56;14.90;99.90
41324;DHT22;27073;51.128;4.220;2023-02-14T13:48:07;14.90;99.90
41324;DHT22;27073;51.128;4.220;2023-02-14T13:53:09;15.10;99.90
41324;DHT22;27073;51.128;4.220;2023-02-14T13:55:36;15.20;99.90
41324;DHT22;27073;51.128;4.220;2023-02-14T13:58:18;15.10;99.90
41324;DHT22;27073;51.128;4.220;2023-02-14T14:00:47;15.10;99.90
41324;DHT22;27073;51.128;4.220;2023-02-14T14:06:06;14.90;99.90
41324;DHT22;27073;51.128;4.220;2023-02-14T14:18:48;15.60;99.90
41324;DHT22;27073;51.128;4.220;2023-02-14T14:26:49;16.00;99.90
41324;DHT22;27073;51.128;4.220;2023-02-14T14:31:51;15.60;99.90
41324;DHT22;27073;51.128;4.220;2023-02-14T14:34:25;15.50;99.90
41324;DHT22;27073;51.128;4.220;2023-02-14T14:37:05;15.70;99.90
41324;DHT22;27073;51.128;4.220;2023-02-14T14:39:33;15.90;99.90
41324;DHT22;27073;51.128;4.220;2023-02-14T14:42:28;16.00;99.90
41324;DHT22;27073;51.128;4.220;2023-02-14T14:45:00;16.00;87.30
41324;DHT22;27073;51.128;4.220;2023-02-14T14:47:42;16.20;57.90
41324;DHT22;27073;51.128;4.220;2023-02-14T14:50:32;16.40;99.90
41324;DHT22;27073;51.128;4.220;2023-02-14T14:53:03;16.20;99.90
41324;DHT22;27073;51.128;4.220;2023-02-14T14:55:35;16.10;99.90
41324;DHT22;27073;51.128;4.220;2023-02-14T14:58:05;16.00;1.00
41324;DHT22;27073;51.128;4.220;2023-02-14T15:00:37;16.10;4.80
41324;DHT22;27073;51.128;4.220;2023-02-14T15:03:14;16.30;99.90
41324;DHT22;27073;51.128;4.220;2023-02-14T15:05:44;16.40;99.90
41324;DHT22;27073;51.128;4.220;2023-02-14T15:11:16;16.30;99.90
41324;DHT22;27073;51.128;4.220;2023-02-14T15:14:05;16.40;99.90
41324;DHT22;27073;51.128;4.220;2023-02-14T15:16:40;16.30;99.90
41324;DHT22;27073;51.128;4.220;2023-02-14T15:19:33;16.50;64.80
41324;DHT22;27073;51.128;4.220;2023-02-14T15:22:03;16.70;99.90
41324;DHT22;27073;51.128;4.220;2023-02-14T15:24:29;16.70;99.90
41324;DHT22;27073;51.128;4.220;2023-02-14T15:26:58;16.80;99.90
41324;DHT22;27073;51.128;4.220;2023-02-14T15:29:27;17.10;99.90
41324;DHT22;27073;51.128;4.220;2023-02-14T15:31:54;17.10;99.90
41324;DHT22;27073;51.128;4.220;2023-02-14T15:34:27;17.10;99.90
41324;DHT22;27073;51.128;4.220;2023-02-14T15:36:55;17.40;99.90
41324;DHT22;27073;51.128;4.220;2023-02-14T15:39:42;17.40;99.90
41324;DHT22;27073;51.128;4.220;2023-02-14T15:42:20;18.30;1.00
41324;DHT22;27073;51.128;4.220;2023-02-14T15:47:44;20.00;52.10
41324;DHT22;27073;51.128;4.220;2023-02-14T15:50:32;20.40;99.90
41324;DHT22;27073;51.128;4.220;2023-02-14T15:53:07;20.40;99.90
41324;DHT22;27073;51.128;4.220;2023-02-14T15:55:41;20.90;99.90
41324;DHT22;27073;51.128;4.220;2023-02-14T15:58:22;21.70;99.90
41324;DHT22;27073;51.128;4.220;2023-02-14T16:00:51;21.00;99.90
41324;DHT22;27073;51.128;4.220;2023-02-14T16:03:26;21.30;99.90
41324;DHT22;27073;51.128;4.220;2023-02-14T16:05:52;20.80;99.90
41324;DHT22;27073;51.128;4.220;2023-02-14T16:11:14;20.80;99.90
41324;DHT22;27073;51.128;4.220;2023-02-14T16:13:44;21.00;99.90
41324;DHT22;27073;51.128;4.220;2023-02-14T16:16:11;21.40;99.90
41324;DHT22;27073;51.128;4.220;2023-02-14T16:19:03;19.50;99.90
41324;DHT22;27073;51.128;4.220;2023-02-14T16:21:30;19.80;99.90
41324;DHT22;27073;51.128;4.220;2023-02-14T16:29:05;21.00;99.90
41324;DHT22;27073;51.128;4.220;2023-02-14T16:31:31;21.00;99.90
41324;DHT22;27073;51.128;4.220;2023-02-14T16:33:58;20.90;99.90
41324;DHT22;27073;51.128;4.220;2023-02-14T16:36:26;20.80;99.90
41324;DHT22;27073;51.128;4.220;2023-02-14T16:38:53;20.70;99.90
41324;DHT22;27073;51.128;4.220;2023-02-14T16:41:25;20.40;99.90
41324;DHT22;27073;51.128;4.220;2023-02-14T16:43:52;19.80;99.90
41324;DHT22;27073;51.128;4.220;2023-02-14T16:46:29;19.40;99.90
41324;DHT22;27073;51.128;4.220;2023-02-14T16:48:56;18.90;1.00
41324;DHT22;27073;51.128;4.220;2023-02-14T16:51:24;18.60;38.80
41324;DHT22;27073;51.128;4.220;2023-02-14T16:53:52;18.20;99.90
41324;DHT22;27073;51.128;4.220;2023-02-14T16:56:38;18.00;1.00
41324;DHT22;27073;51.128;4.220;2023-02-14T16:59:06;17.70;99.90
41324;DHT22;27073;51.128;4.220;2023-02-14T17:01:32;17.30;99.90
41324;DHT22;27073;51.128;4.220;2023-02-14T17:03:57;17.10;99.90
41324;DHT22;27073;51.128;4.220;2023-02-14T17:06:25;17.00;1.00
41324;DHT22;27073;51.128;4.220;2023-02-14T17:08:55;16.70;99.90
41324;DHT22;27073;51.128;4.220;2023-02-14T17:11:24;16.40;99.90
41324;DHT22;27073;51.128;4.220;2023-02-14T17:13:52;16.10;99.90
41324;DHT22;27073;51.128;4.220;2023-02-14T17:16:19;15.90;1.00
41324;DHT22;27073;51.128;4.220;2023-02-14T17:18:47;15.80;1.00
41324;DHT22;27073;51.128;4.220;2023-02-14T17:21:15;15.50;99.90
41324;DHT22;27073;51.128;4.220;2023-02-14T17:23:41;15.40;99.90
41324;DHT22;27073;51.128;4.220;2023-02-14T17:26:07;15.40;99.90
41324;DHT22;27073;51.128;4.220;2023-02-14T17:28:32;15.20;99.90
41324;DHT22;27073;51.128;4.220;2023-02-14T17:30:58;15.00;99.90
41324;DHT22;27073;51.128;4.220;2023-02-14T17:33:24;14.80;99.90
41324;DHT22;27073;51.128;4.220;2023-02-14T17:35:50;14.70;99.90
41324;DHT22;27073;51.128;4.220;2023-02-14T17:38:17;14.60;99.90
41324;DHT22;27073;51.128;4.220;2023-02-14T17:40:44;14.50;99.90
41324;DHT22;27073;51.128;4.220;2023-02-14T17:43:09;14.60;99.90
41324;DHT22;27073;51.128;4.220;2023-02-14T17:45:35;14.50;99.90
41324;DHT22;27073;51.128;4.220;2023-02-14T17:48:01;14.40;99.90
41324;DHT22;27073;51.128;4.220;2023-02-14T17:50:27;14.20;99.90
41324;DHT22;27073;51.128;4.220;2023-02-14T17:52:54;14.10;1.00
41324;DHT22;27073;51.128;4.220;2023-02-14T17:55:21;14.00;1.00
41324;DHT22;27073;51.128;4.220;2023-02-14T17:57:47;13.90;1.00
41324;DHT22;27073;51.128;4.220;2023-02-14T18:00:19;13.90;1.00
41324;DHT22;27073;51.128;4.220;2023-02-14T18:02:45;13.80;1.00
41324;DHT22;27073;51.128;4.220;2023-02-14T18:05:10;13.70;1.00
41324;DHT22;27073;51.128;4.220;2023-02-14T18:07:37;13.70;1.00
41324;DHT22;27073;51.128;4.220;2023-02-14T18:10:03;13.60;1.00
41324;DHT22;27073;51.128;4.220;2023-02-14T18:12:29;13.50;1.00
41324;DHT22;27073;51.128;4.220;2023-02-14T18:14:55;13.40;1.00
41324;DHT22;27073;51.128;4.220;2023-02-14T18:17:21;13.40;1.00
41324;DHT22;27073;51.128;4.220;2023-02-14T18:19:48;13.40;1.00
41324;DHT22;27073;51.128;4.220;2023-02-14T18:22:13;13.40;1.00
41324;DHT22;27073;51.128;4.220;2023-02-14T18:24:39;13.30;1.00
41324;DHT22;27073;51.128;4.220;2023-02-14T18:27:05;13.10;1.00
41324;DHT22;27073;51.128;4.220;2023-02-14T18:29:31;12.90;1.00
41324;DHT22;27073;51.128;4.220;2023-02-14T18:31:57;12.90;1.00